createdAt,value
2023-08-29T00:02:24.221Z,3.45
2023-08-29T00:04:51.623Z,4.32
2023-08-29T00:07:19.393Z,3.45
2023-08-29T00:09:46.882Z,3.88
2023-08-29T00:12:14.202Z,3.33
2023-08-29T00:14:41.890Z,4.22
2023-08-29T00:17:11.997Z,3.67
2023-08-29T00:19:42.955Z,3.70
2023-08-29T00:22:12.177Z,4.32
2023-08-29T00:24:40.337Z,3.80
2023-08-29T00:27:07.655Z,4.00
2023-08-29T00:29:35.026Z,4.30
2023-08-29T00:32:02.325Z,3.80
2023-08-29T00:34:29.785Z,3.22
2023-08-29T00:36:57.469Z,3.53
2023-08-29T00:39:24.784Z,3.78
2023-08-29T00:41:52.573Z,4.07
2023-08-29T00:44:20.183Z,4.13
2023-08-29T00:46:47.676Z,4.57
2023-08-29T00:49:16.334Z,3.78
2023-08-29T00:51:43.678Z,3.75
2023-08-29T00:54:11.081Z,3.70
2023-08-29T00:56:39.752Z,3.65
2023-08-29T00:59:19.200Z,3.88
2023-08-29T01:01:50.762Z,3.38
2023-08-29T01:04:24.811Z,3.95
2023-08-29T01:07:02.656Z,3.53
2023-08-29T01:09:30.478Z,4.07
2023-08-29T01:12:10.699Z,3.30
2023-08-29T01:14:42.695Z,3.50
2023-08-29T01:17:20.490Z,3.80
2023-08-29T01:19:53.056Z,3.72
2023-08-29T01:22:24.587Z,3.50
2023-08-29T01:24:55.702Z,3.55
2023-08-29T01:27:22.992Z,4.57
2023-08-29T01:29:52.095Z,3.65
2023-08-29T01:32:20.509Z,3.67
2023-08-29T01:34:47.802Z,4.10
2023-08-29T01:37:15.188Z,4.28
2023-08-29T01:39:42.897Z,4.20
2023-08-29T01:42:13.518Z,4.35
2023-08-29T01:44:40.766Z,4.35
2023-08-29T01:47:08.123Z,4.30
2023-08-29T01:49:36.772Z,4.80
2023-08-29T01:52:04.134Z,4.63
2023-08-29T01:54:31.531Z,4.55
2023-08-29T01:57:00.606Z,4.80
2023-08-29T01:59:28.432Z,4.32
2023-08-29T02:01:58.791Z,5.10
2023-08-29T02:04:28.659Z,5.10
2023-08-29T02:07:01.486Z,6.05
2023-08-29T02:09:30.552Z,5.85
2023-08-29T02:11:58.332Z,4.15
2023-08-29T02:14:26.461Z,4.65
2023-08-29T02:16:53.777Z,4.43
2023-08-29T02:19:21.420Z,5.45
2023-08-29T02:21:48.796Z,4.63
2023-08-29T02:24:16.177Z,5.85
2023-08-29T02:26:43.437Z,4.45
2023-08-29T02:29:10.848Z,4.60
2023-08-29T02:31:38.865Z,4.60
2023-08-29T02:34:06.581Z,5.82
2023-08-29T02:36:33.892Z,5.15
2023-08-29T02:39:01.632Z,4.60
2023-08-29T02:41:28.901Z,4.72
2023-08-29T02:43:56.191Z,6.20
2023-08-29T02:46:24.427Z,6.05
2023-08-29T02:48:51.815Z,6.30
2023-08-29T02:51:19.625Z,5.63
2023-08-29T02:53:47.312Z,5.87
2023-08-29T02:56:14.657Z,5.97
2023-08-29T02:58:44.586Z,4.22
2023-08-29T03:01:14.026Z,4.03
2023-08-29T03:03:44.815Z,3.90
2023-08-29T03:06:13.162Z,3.90
2023-08-29T03:08:43.539Z,3.40
2023-08-29T03:11:14.651Z,3.90
2023-08-29T03:13:45.668Z,4.35
2023-08-29T03:16:17.360Z,4.40
2023-08-29T03:18:46.407Z,4.30
2023-08-29T03:21:13.750Z,4.40
2023-08-29T03:23:41.117Z,5.15
2023-08-29T03:26:11.249Z,5.15
2023-08-29T03:28:39.214Z,5.95
2023-08-29T03:31:13.880Z,5.25
2023-08-29T03:33:41.988Z,6.00
2023-08-29T03:36:09.387Z,5.82
2023-08-29T03:38:37.461Z,6.60
2023-08-29T03:41:05.906Z,7.30
2023-08-29T03:43:34.938Z,6.10
2023-08-29T03:46:03.716Z,6.88
2023-08-29T03:48:32.622Z,12.40
2023-08-29T03:51:03.678Z,6.75
2023-08-29T03:53:31.065Z,7.07
2023-08-29T03:56:01.508Z,6.82
2023-08-29T03:58:31.434Z,7.00
2023-08-29T04:00:59.602Z,7.30
2023-08-29T04:03:27.557Z,6.85
2023-08-29T04:05:55.273Z,6.65
2023-08-29T04:08:22.560Z,6.20
2023-08-29T04:10:50.086Z,8.10
2023-08-29T04:13:17.415Z,7.30
2023-08-29T04:15:45.234Z,6.88
2023-08-29T04:18:13.725Z,7.47
2023-08-29T04:20:41.028Z,7.13
2023-08-29T04:23:08.492Z,7.47
2023-08-29T04:25:39.918Z,6.68
2023-08-29T04:28:08.388Z,6.50
2023-08-29T04:30:39.991Z,7.72
2023-08-29T04:33:08.439Z,7.57
2023-08-29T04:35:36.552Z,7.22
2023-08-29T04:38:05.685Z,7.10
2023-08-29T04:40:34.440Z,7.35
2023-08-29T04:43:02.360Z,8.50
2023-08-29T04:45:29.699Z,8.05
2023-08-29T04:47:57.044Z,7.28
2023-08-29T04:50:26.610Z,7.65
2023-08-29T04:52:55.171Z,8.60
2023-08-29T04:55:23.036Z,7.88
2023-08-29T04:57:53.057Z,7.38
2023-08-29T05:00:20.979Z,7.45
2023-08-29T05:02:49.514Z,8.63
2023-08-29T05:07:47.936Z,7.03
2023-08-29T05:10:17.170Z,7.90
2023-08-29T05:12:45.227Z,7.30
2023-08-29T05:15:13.763Z,7.32
2023-08-29T05:17:41.539Z,7.38
2023-08-29T05:20:12.769Z,7.88
2023-08-29T05:22:40.900Z,6.50
2023-08-29T05:25:08.892Z,6.07
2023-08-29T05:27:36.280Z,6.03
2023-08-29T05:30:04.583Z,6.50
2023-08-29T05:32:32.735Z,6.20
2023-08-29T05:35:00.142Z,7.03
2023-08-29T05:37:28.102Z,6.65
2023-08-29T05:39:55.418Z,7.72
2023-08-29T05:42:22.752Z,6.70
2023-08-29T05:44:50.035Z,7.07
2023-08-29T05:47:17.318Z,7.45
2023-08-29T05:49:44.685Z,8.38
2023-08-29T05:52:11.971Z,6.80
2023-08-29T05:54:39.427Z,8.38
2023-08-29T05:57:06.760Z,8.00
2023-08-29T05:59:34.319Z,7.90
2023-08-29T06:02:01.657Z,8.07
2023-08-29T06:04:28.927Z,7.97
2023-08-29T06:06:56.204Z,7.78
2023-08-29T06:09:23.500Z,8.38
2023-08-29T06:11:50.926Z,9.02
2023-08-29T06:14:18.207Z,9.95
2023-08-29T06:16:45.628Z,11.27
2023-08-29T06:19:12.880Z,10.30
2023-08-29T06:21:40.230Z,11.00
2023-08-29T06:24:07.946Z,10.38
2023-08-29T06:26:35.251Z,12.15
2023-08-29T06:29:02.698Z,10.50
2023-08-29T06:31:30.017Z,10.75
2023-08-29T06:33:57.405Z,10.73
2023-08-29T06:36:24.714Z,11.63
2023-08-29T06:38:51.960Z,11.40
2023-08-29T06:41:19.267Z,11.07
2023-08-29T06:43:47.971Z,11.35
2023-08-29T06:46:15.492Z,12.30
2023-08-29T06:48:42.933Z,11.40
2023-08-29T06:51:10.779Z,11.35
2023-08-29T06:53:38.088Z,10.73
2023-08-29T06:56:05.575Z,10.25
2023-08-29T06:58:33.062Z,10.05
2023-08-29T07:01:00.554Z,12.85
2023-08-29T07:03:28.000Z,11.18
2023-08-29T07:05:56.110Z,11.45
2023-08-29T07:08:23.614Z,11.65
2023-08-29T07:10:50.989Z,12.02
2023-08-29T07:13:18.367Z,10.23
2023-08-29T07:15:45.700Z,10.52
2023-08-29T07:18:14.309Z,9.30
2023-08-29T07:20:41.798Z,9.07
2023-08-29T07:23:09.072Z,9.25
2023-08-29T07:25:40.451Z,8.70
2023-08-29T07:28:09.272Z,6.82
2023-08-29T07:30:37.972Z,6.60
2023-08-29T07:33:05.429Z,6.22
2023-08-29T07:35:32.760Z,5.50
2023-08-29T07:38:00.079Z,5.60
2023-08-29T07:40:27.626Z,6.35
2023-08-29T07:42:54.921Z,6.78
2023-08-29T07:45:22.236Z,5.28
2023-08-29T07:47:50.248Z,5.18
2023-08-29T07:50:17.784Z,5.32
2023-08-29T07:52:45.086Z,4.68
2023-08-29T07:55:12.480Z,4.88
2023-08-29T07:57:39.815Z,4.72
2023-08-29T08:00:10.911Z,4.40
2023-08-29T08:02:42.860Z,4.82
2023-08-29T08:05:14.587Z,4.47
2023-08-29T08:07:42.446Z,4.43
2023-08-29T08:10:10.341Z,4.03
2023-08-29T08:12:41.051Z,4.43
2023-08-29T08:15:09.200Z,5.25
2023-08-29T08:17:36.926Z,5.07
2023-08-29T08:20:09.596Z,4.75
2023-08-29T08:22:37.497Z,4.15
2023-08-29T08:25:05.431Z,4.93
2023-08-29T08:27:32.727Z,5.57
2023-08-29T08:30:01.019Z,4.68
2023-08-29T08:32:28.655Z,5.53
2023-08-29T08:34:57.047Z,5.63
2023-08-29T08:37:24.340Z,4.60
2023-08-29T08:39:51.710Z,4.65
2023-08-29T08:42:20.270Z,4.13
2023-08-29T08:44:47.630Z,4.35
2023-08-29T08:47:14.976Z,4.55
2023-08-29T08:49:42.917Z,4.88
2023-08-29T08:52:12.522Z,3.22
2023-08-29T08:54:40.479Z,3.00
2023-08-29T08:57:11.932Z,3.00
2023-08-29T08:59:43.701Z,3.47
2023-08-29T09:02:17.737Z,3.70
2023-08-29T09:04:45.887Z,3.30
2023-08-29T09:07:13.241Z,3.50
2023-08-29T09:09:42.337Z,3.50
2023-08-29T09:12:11.895Z,3.80
2023-08-29T09:14:43.774Z,4.60
2023-08-29T09:17:12.946Z,4.68
2023-08-29T09:19:48.430Z,4.55
2023-08-29T09:22:18.091Z,4.43
2023-08-29T09:24:50.112Z,4.57
2023-08-29T09:27:20.675Z,4.63
2023-08-29T09:29:49.882Z,6.10
2023-08-29T09:32:21.772Z,5.78
2023-08-29T09:35:04.788Z,6.05
2023-08-29T09:38:05.958Z,6.82
2023-08-29T09:40:49.978Z,6.35
2023-08-29T09:43:20.068Z,5.15
2023-08-29T09:45:52.063Z,4.68
2023-08-29T09:48:23.055Z,5.35
2023-08-29T09:50:51.622Z,4.60
2023-08-29T09:53:20.645Z,5.32
2023-08-29T09:55:50.491Z,4.55
2023-08-29T09:58:18.994Z,4.30
2023-08-29T10:00:47.655Z,3.92
2023-08-29T10:03:16.022Z,5.35
2023-08-29T10:05:45.332Z,5.00
2023-08-29T10:08:12.592Z,6.80
2023-08-29T10:10:46.396Z,7.25
2023-08-29T10:13:14.506Z,7.28
2023-08-29T10:15:45.446Z,8.13
2023-08-29T10:18:13.910Z,7.18
2023-08-29T10:20:44.735Z,3.92
2023-08-29T10:23:13.006Z,4.28
2023-08-29T10:25:41.159Z,2.92
2023-08-29T10:28:13.871Z,5.07
2023-08-29T10:30:44.178Z,5.32
2023-08-29T10:33:13.110Z,5.13
2023-08-29T10:35:40.866Z,4.40
2023-08-29T10:38:11.358Z,4.03
2023-08-29T10:40:40.848Z,3.40
2023-08-29T10:43:24.751Z,2.83
2023-08-29T10:45:58.811Z,2.67
2023-08-29T10:48:50.577Z,3.00
2023-08-29T10:51:20.547Z,3.47
2023-08-29T10:54:06.922Z,3.40
2023-08-29T10:56:42.009Z,3.22
2023-08-29T10:59:28.639Z,4.03
2023-08-29T11:02:15.855Z,3.53
2023-08-29T11:04:55.793Z,3.90
2023-08-29T11:07:26.547Z,4.63
2023-08-29T11:10:12.960Z,5.40
2023-08-29T11:13:01.406Z,5.60
2023-08-29T11:15:47.981Z,5.20
2023-08-29T11:18:34.794Z,5.10
2023-08-29T11:21:07.007Z,4.18
2023-08-29T11:23:44.657Z,3.25
2023-08-29T11:26:12.248Z,3.60
2023-08-29T11:28:40.726Z,3.35
2023-08-29T11:31:08.346Z,3.03
2023-08-29T11:33:36.590Z,2.78
2023-08-29T11:36:05.368Z,3.30
2023-08-29T11:38:33.892Z,3.75
2023-08-29T11:41:10.931Z,4.10
2023-08-29T11:44:52.168Z,4.28
2023-08-29T11:46:37.072Z,4.72
2023-08-29T11:49:22.730Z,4.00
2023-08-29T11:51:50.065Z,4.45
2023-08-29T11:54:36.100Z,4.72
2023-08-29T11:57:07.397Z,4.95
2023-08-29T11:59:36.733Z,5.10
2023-08-29T12:02:04.028Z,4.68
2023-08-29T12:04:31.316Z,4.35
2023-08-29T12:07:18.042Z,4.72
2023-08-29T12:09:46.343Z,4.25
2023-08-29T12:12:34.096Z,4.38
2023-08-29T12:15:01.452Z,5.10
2023-08-29T12:17:42.205Z,5.38
2023-08-29T12:20:15.767Z,5.45
2023-08-29T12:22:43.888Z,4.68
2023-08-29T12:25:11.172Z,5.13
2023-08-29T12:27:38.652Z,4.63
2023-08-29T12:30:07.418Z,5.50
2023-08-29T12:32:35.561Z,5.15
2023-08-29T12:35:02.952Z,5.65
2023-08-29T12:37:30.455Z,6.32
2023-08-29T12:39:57.745Z,5.70
2023-08-29T12:42:25.184Z,5.32
2023-08-29T12:44:52.731Z,7.40
2023-08-29T12:47:20.961Z,8.10
2023-08-29T12:49:50.062Z,9.73
2023-08-29T12:52:17.387Z,8.32
2023-08-29T12:54:45.573Z,7.78
2023-08-29T12:57:14.311Z,6.63
2023-08-29T12:59:43.218Z,5.70
2023-08-29T13:04:38.532Z,6.30
2023-08-29T13:07:06.407Z,6.88
2023-08-29T13:09:38.092Z,5.43
2023-08-29T13:12:06.632Z,6.40
2023-08-29T13:14:38.665Z,4.75
2023-08-29T13:17:06.904Z,3.70
2023-08-29T13:19:34.786Z,3.20
2023-08-29T13:22:07.352Z,2.92
2023-08-29T13:24:35.663Z,3.20
2023-08-29T13:27:03.113Z,3.00
2023-08-29T13:29:31.624Z,4.97
2023-08-29T13:32:00.053Z,3.60
2023-08-29T13:34:27.613Z,4.00
2023-08-29T13:36:55.179Z,3.17
2023-08-29T13:39:22.685Z,3.90
2023-08-29T13:41:50.048Z,3.45
2023-08-29T13:44:17.818Z,2.90
2023-08-29T13:46:46.862Z,2.83
2023-08-29T13:49:14.475Z,2.78
2023-08-29T13:51:41.939Z,2.67
2023-08-29T13:54:09.332Z,4.53
2023-08-29T13:56:37.331Z,3.55
2023-08-29T13:59:05.048Z,4.30
2023-08-29T14:01:32.775Z,3.72
2023-08-29T14:04:00.285Z,3.50
2023-08-29T14:06:27.882Z,3.58
2023-08-29T14:08:55.211Z,3.72
2023-08-29T14:11:22.503Z,3.95
2023-08-29T14:13:49.803Z,3.80
2023-08-29T14:16:17.260Z,4.53
2023-08-29T14:18:46.995Z,3.45
2023-08-29T14:21:14.343Z,3.83
2023-08-29T14:23:41.657Z,3.65
2023-08-29T14:26:12.606Z,3.63
2023-08-29T14:28:40.037Z,3.60
2023-08-29T14:31:07.552Z,2.90
2023-08-29T14:33:34.866Z,3.40
2023-08-29T14:36:04.889Z,2.80
2023-08-29T14:38:32.547Z,2.30
2023-08-29T14:41:15.020Z,2.45
2023-08-29T14:43:43.079Z,2.42
2023-08-29T14:46:10.420Z,2.33
2023-08-29T14:48:40.035Z,2.25
2023-08-29T14:51:07.475Z,4.32
2023-08-29T14:53:35.094Z,3.97
2023-08-29T14:56:07.220Z,2.70
2023-08-29T14:58:41.607Z,2.88
2023-08-29T15:01:18.023Z,3.10
2023-08-29T15:03:48.820Z,2.30
2023-08-29T15:06:25.709Z,2.00
2023-08-29T15:09:00.227Z,3.08
2023-08-29T15:11:29.547Z,2.85
2023-08-29T15:13:57.385Z,2.38
2023-08-29T15:16:26.303Z,2.20
2023-08-29T15:18:54.921Z,2.50
2023-08-29T15:21:26.918Z,2.05
2023-08-29T15:24:19.569Z,2.20
2023-08-29T15:27:00.308Z,1.90
2023-08-29T15:29:28.996Z,2.35
2023-08-29T15:31:57.811Z,2.17
2023-08-29T15:34:25.710Z,2.85
2023-08-29T15:36:52.993Z,2.90
2023-08-29T15:39:20.277Z,2.50
2023-08-29T15:41:47.602Z,2.20
2023-08-29T15:44:14.890Z,2.22
2023-08-29T15:46:42.208Z,2.50
2023-08-29T15:49:10.666Z,2.50
2023-08-29T15:51:37.963Z,2.80
2023-08-29T15:54:05.412Z,2.70
2023-08-29T15:56:32.740Z,2.10
2023-08-29T15:59:00.300Z,2.75
2023-08-29T16:01:28.807Z,2.55
2023-08-29T16:03:56.532Z,2.85
2023-08-29T16:06:23.944Z,3.28
2023-08-29T16:08:51.285Z,3.17
2023-08-29T16:11:20.600Z,2.90
2023-08-29T16:13:48.058Z,2.22
2023-08-29T16:16:15.454Z,2.45
2023-08-29T16:18:42.786Z,2.63
2023-08-29T16:21:10.071Z,2.70
2023-08-29T16:23:37.383Z,2.50
2023-08-29T16:26:17.779Z,2.50
2023-08-29T16:28:45.602Z,2.80
2023-08-29T16:31:12.893Z,2.75
2023-08-29T16:33:40.227Z,2.60
2023-08-29T16:36:08.212Z,2.45
2023-08-29T16:38:38.358Z,2.67
2023-08-29T16:41:05.814Z,3.00
2023-08-29T16:43:33.208Z,2.47
2023-08-29T16:46:00.606Z,2.60
2023-08-29T16:48:29.587Z,2.30
2023-08-29T16:50:57.144Z,2.40
2023-08-29T16:53:25.212Z,2.88
2023-08-29T16:55:52.546Z,3.00
2023-08-29T16:58:19.968Z,2.42
2023-08-29T17:00:48.285Z,2.83
2023-08-29T17:03:15.800Z,2.70
2023-08-29T17:05:43.327Z,2.90
2023-08-29T17:08:11.051Z,3.25
2023-08-29T17:10:38.614Z,2.80
2023-08-29T17:13:05.966Z,3.08
2023-08-29T17:15:33.226Z,2.63
2023-08-29T17:18:00.700Z,2.72
2023-08-29T17:20:28.061Z,2.80
2023-08-29T17:22:55.349Z,2.83
2023-08-29T17:25:24.589Z,3.10
2023-08-29T17:27:52.532Z,2.97
2023-08-29T17:30:21.806Z,3.03
2023-08-29T17:32:49.085Z,3.30
2023-08-29T17:35:16.431Z,2.85
2023-08-29T17:37:43.856Z,3.03
2023-08-29T17:40:11.956Z,3.40
2023-08-29T17:42:40.552Z,3.10
2023-08-29T17:45:09.521Z,3.42
2023-08-29T17:50:05.054Z,3.40
2023-08-29T17:52:32.391Z,3.92
2023-08-29T17:55:02.061Z,4.43
2023-08-29T17:57:30.653Z,4.78
2023-08-29T17:59:59.666Z,5.03
2023-08-29T18:02:27.234Z,4.30
2023-08-29T18:04:54.706Z,4.50
2023-08-29T18:07:22.109Z,4.43
2023-08-29T18:10:09.825Z,4.90
2023-08-29T18:12:38.629Z,5.03
2023-08-29T18:15:06.858Z,4.80
2023-08-29T18:17:34.326Z,5.07
2023-08-29T18:20:01.697Z,4.70
2023-08-29T18:22:30.711Z,6.25
2023-08-29T18:27:27.169Z,4.82
2023-08-29T18:29:54.620Z,5.15
2023-08-29T18:32:22.239Z,5.78
2023-08-29T18:34:52.583Z,5.15
2023-08-29T18:37:20.544Z,6.07
2023-08-29T18:39:48.230Z,5.57
2023-08-29T18:42:15.626Z,6.05
2023-08-29T18:44:42.939Z,5.65
2023-08-29T18:47:10.280Z,5.75
2023-08-29T18:49:37.835Z,5.50
2023-08-29T18:52:05.517Z,6.00
2023-08-29T18:54:34.605Z,6.45
2023-08-29T18:57:02.059Z,6.28
2023-08-29T18:59:29.431Z,5.47
2023-08-29T19:01:57.699Z,5.95
2023-08-29T19:04:25.014Z,5.63
2023-08-29T19:06:52.328Z,6.30
2023-08-29T19:09:19.647Z,6.00
2023-08-29T19:11:48.040Z,6.32
2023-08-29T19:14:15.505Z,7.55
2023-08-29T19:16:42.795Z,5.93
2023-08-29T19:19:13.197Z,5.80
2023-08-29T19:21:40.719Z,6.65
2023-08-29T19:24:09.193Z,7.45
2023-08-29T19:26:40.385Z,6.63
2023-08-29T19:29:07.814Z,6.97
2023-08-29T19:31:35.087Z,7.35
2023-08-29T19:34:02.397Z,7.72
2023-08-29T19:36:29.720Z,8.68
2023-08-29T19:39:08.531Z,7.97
2023-08-29T19:41:43.967Z,7.25
2023-08-29T19:44:11.445Z,9.18
2023-08-29T19:46:38.849Z,8.80
2023-08-29T19:49:06.196Z,8.35
2023-08-29T19:51:33.489Z,8.48
2023-08-29T19:54:00.801Z,7.88
2023-08-29T19:56:28.197Z,9.52
2023-08-29T19:58:55.465Z,8.23
2023-08-29T20:01:24.294Z,9.15
2023-08-29T20:03:51.608Z,8.93
2023-08-29T20:06:18.920Z,8.30
2023-08-29T20:08:46.268Z,9.52
2023-08-29T20:11:13.796Z,8.52
2023-08-29T20:13:41.086Z,8.82
2023-08-29T20:16:08.490Z,8.85
2023-08-29T20:18:35.929Z,9.40
2023-08-29T20:21:05.032Z,8.20
2023-08-29T20:26:00.079Z,8.43
2023-08-29T20:28:27.470Z,7.45
2023-08-29T20:30:54.996Z,7.50
2023-08-29T20:33:22.361Z,7.32
2023-08-29T20:35:49.759Z,7.65
2023-08-29T20:38:17.083Z,7.50
2023-08-29T20:40:44.456Z,7.25
2023-08-29T20:43:11.722Z,7.30
2023-08-29T20:45:39.052Z,7.07
2023-08-29T20:48:06.874Z,7.28
2023-08-29T20:50:34.713Z,7.77
2023-08-29T20:53:02.024Z,7.80
2023-08-29T20:55:31.521Z,8.70
2023-08-29T20:58:00.779Z,7.75
2023-08-29T21:00:28.055Z,8.75
2023-08-29T21:02:56.239Z,9.40
2023-08-29T21:05:23.683Z,8.63
2023-08-29T21:07:50.972Z,9.05
2023-08-29T21:10:18.321Z,7.95
2023-08-29T21:12:45.605Z,8.00
2023-08-29T21:15:13.012Z,7.85
2023-08-29T21:17:40.313Z,6.97
2023-08-29T21:20:08.757Z,7.30
2023-08-29T21:22:36.077Z,7.68
2023-08-29T21:25:03.522Z,7.10
2023-08-29T21:27:30.915Z,7.35
2023-08-29T21:29:58.362Z,7.55
2023-08-29T21:32:25.740Z,6.70
2023-08-29T21:34:53.079Z,7.40
2023-08-29T21:37:20.457Z,8.20
2023-08-29T21:39:47.779Z,7.68
2023-08-29T21:42:15.085Z,7.60
2023-08-29T21:44:42.372Z,8.00
2023-08-29T21:47:09.706Z,7.82
2023-08-29T21:49:37.105Z,7.22
2023-08-29T21:52:04.654Z,8.27
2023-08-29T21:54:31.960Z,7.57
2023-08-29T21:56:59.334Z,8.90
2023-08-29T21:59:26.634Z,7.70
2023-08-29T22:01:54.537Z,8.38
2023-08-29T22:04:21.841Z,8.20
2023-08-29T22:06:49.088Z,8.13
2023-08-29T22:09:16.530Z,7.95
2023-08-29T22:11:43.828Z,9.02
2023-08-29T22:14:11.121Z,8.68
2023-08-29T22:16:38.454Z,8.43
2023-08-29T22:19:05.811Z,7.78
2023-08-29T22:21:33.289Z,7.97
2023-08-29T22:24:00.661Z,7.93
2023-08-29T22:26:27.919Z,8.15
2023-08-29T22:28:55.183Z,8.43
2023-08-29T22:31:22.611Z,7.60
2023-08-29T22:33:50.219Z,8.90
2023-08-29T22:36:17.885Z,8.55
2023-08-29T22:38:45.218Z,8.38
2023-08-29T22:41:24.785Z,8.48
2023-08-29T22:43:56.828Z,8.45
2023-08-29T22:46:24.383Z,8.95
2023-08-29T22:48:51.689Z,9.00
2023-08-29T22:51:18.978Z,8.73
2023-08-29T22:53:47.001Z,8.50
2023-08-29T22:56:14.363Z,9.18
2023-08-29T22:58:41.609Z,8.38
2023-08-29T23:01:09.341Z,9.63
2023-08-29T23:03:36.988Z,8.60
2023-08-29T23:06:04.387Z,9.00
2023-08-29T23:08:31.785Z,8.70
2023-08-29T23:10:59.559Z,9.45
2023-08-29T23:13:26.895Z,8.68
2023-08-29T23:15:55.777Z,9.73
2023-08-29T23:18:23.354Z,9.85
2023-08-29T23:20:52.434Z,9.18
2023-08-29T23:25:53.092Z,9.23
2023-08-29T23:28:20.479Z,9.57
2023-08-29T23:30:50.818Z,10.32
2023-08-29T23:33:18.632Z,10.30
2023-08-29T23:35:45.960Z,10.57
2023-08-29T23:38:13.536Z,10.65
2023-08-29T23:40:40.842Z,11.07
2023-08-29T23:43:08.742Z,10.50
2023-08-29T23:45:36.507Z,10.30
2023-08-29T23:48:04.122Z,10.82
2023-08-29T23:50:31.483Z,10.57
2023-08-29T23:53:00.159Z,10.40
2023-08-29T23:55:27.567Z,9.65
2023-08-29T23:57:55.094Z,10.63
